Time;durP1;ratioP1;P1;durP2;ratioP2;P2;SDS_P1;SDS_P2;PMS_P1;PMS_P2;Temp;Humidity;BMP_temperature;BMP_pressure;BME280_temperature;BME280_humidity;BME280_pressure;Samples;Min_cycle;Max_cycle;Signal;HPM_P1;HPM_P2
2022/06/06 00:02:17;;;;;;;35.38;21.77;;;17.30;90.60;;;;;;6246652;23;20136;-90
2022/06/06 00:04:43;;;;;;;38.53;22.88;;;17.30;90.50;;;;;;6244872;23;20144;-87
2022/06/06 00:07:09;;;;;;;38.83;23.67;;;17.40;89.90;;;;;;6243882;23;20160;-87
2022/06/06 00:09:34;;;;;;;40.27;23.83;;;17.40;89.90;;;;;;6219305;23;20202;-88
2022/06/06 00:12:03;;;;;;;36.00;21.00;;;17.40;90.40;;;;;;6244594;23;20156;-88
2022/06/06 00:14:31;;;;;;;37.47;23.45;;;17.40;90.80;;;;;;6244604;23;20626;-88
2022/06/06 00:16:56;;;;;;;40.42;25.02;;;17.40;90.80;;;;;;6244521;22;20156;-88
2022/06/06 00:19:23;;;;;;;37.50;23.40;;;17.40;91.00;;;;;;6244940;23;20540;-90
2022/06/06 00:21:49;;;;;;;42.42;25.90;;;17.40;91.40;;;;;;6244969;23;20163;-90
2022/06/06 00:24:16;;;;;;;43.97;25.38;;;17.40;91.20;;;;;;6245120;22;20156;-90
2022/06/06 00:26:42;;;;;;;40.53;25.67;;;17.40;91.40;;;;;;6245092;23;20153;-90
2022/06/06 00:29:09;;;;;;;42.47;26.27;;;17.40;91.10;;;;;;6244650;22;20497;-89
2022/06/06 00:37:08;;;;;;;43.35;25.65;;;17.40;89.70;;;;;;6245696;23;20479;-89
2022/06/06 00:39:35;;;;;;;60.55;30.85;;;17.40;89.50;;;;;;6244461;22;20489;-88
2022/06/06 00:42:01;;;;;;;59.58;29.75;;;17.40;89.30;;;;;;6244798;22;20164;-88
2022/06/06 00:44:34;;;;;;;59.42;31.05;;;17.30;89.00;;;;;;6244444;22;20153;-89
2022/06/06 00:47:12;;;;;;;56.97;31.92;;;17.30;89.50;;;;;;6245478;22;20164;-88
2022/06/06 00:49:43;;;;;;;51.13;31.23;;;17.20;89.50;;;;;;6245876;22;20140;-88
2022/06/06 00:52:14;;;;;;;46.42;27.75;;;17.30;89.70;;;;;;6245838;22;20269;-89
2022/06/06 00:54:45;;;;;;;51.60;30.58;;;17.30;89.40;;;;;;6244603;23;20230;-88
2022/06/06 00:57:18;;;;;;;55.17;30.95;;;17.30;89.10;;;;;;6246356;22;20622;-91
2022/06/06 00:59:45;;;;;;;46.38;30.20;;;17.30;88.90;;;;;;6220648;23;20194;-90
2022/06/06 01:02:13;;;;;;;49.10;32.03;;;17.30;89.30;;;;;;6245970;22;20691;-90
2022/06/06 01:04:41;;;;;;;46.53;28.20;;;17.30;89.80;;;;;;6246455;22;20153;-91
2022/06/06 01:07:09;;;;;;;49.70;30.13;;;17.20;89.20;;;;;;6244060;22;20164;-90
2022/06/06 01:09:36;;;;;;;58.03;33.33;;;17.30;89.10;;;;;;6244653;23;20326;-91
2022/06/06 01:12:07;;;;;;;45.83;27.05;;;17.20;89.20;;;;;;6244406;23;20192;-91
2022/06/06 01:14:37;;;;;;;49.90;30.33;;;17.20;88.80;;;;;;6244840;23;20211;-91
2022/06/06 01:17:50;;;;;;;54.88;30.95;;;17.20;88.70;;;;;;6225066;23;20153;-90
2022/06/06 01:20:22;;;;;;;45.92;25.88;;;17.20;89.30;;;;;;6109801;23;20147;-90
2022/06/06 01:22:56;;;;;;;50.58;30.05;;;17.30;87.80;;;;;;6243518;23;20152;-90
2022/06/06 01:25:41;;;;;;;41.67;24.77;;;17.10;88.10;;;;;;6256608;23;20155;-89
2022/06/06 01:28:34;;;;;;;46.05;28.80;;;17.10;88.70;;;;;;6264499;23;20176;-91
2022/06/06 01:31:06;;;;;;;43.13;25.23;;;16.90;89.00;;;;;;6251956;22;20153;-89
2022/06/06 01:33:51;;;;;;;48.15;27.15;;;17.00;89.00;;;;;;6244082;23;20234;-90
2022/06/06 01:36:19;;;;;;;39.40;24.92;;;17.00;89.00;;;;;;6245869;22;20141;-91
2022/06/06 01:38:46;;;;;;;35.25;22.63;;;16.90;88.50;;;;;;6245794;22;20165;-88
2022/06/06 01:41:15;;;;;;;38.67;24.58;;;17.00;87.60;;;;;;6246070;22;20156;-88
2022/06/06 01:43:50;;;;;;;39.55;25.77;;;16.90;88.60;;;;;;6244152;22;20183;-89
2022/06/06 01:46:25;;;;;;;38.38;23.40;;;16.80;88.80;;;;;;6244289;23;20171;-86
2022/06/06 01:48:51;;;;;;;40.72;25.92;;;16.80;88.80;;;;;;6247508;22;20183;-88
2022/06/06 01:51:30;;;;;;;38.05;22.52;;;16.80;88.60;;;;;;6247489;22;20615;-87
2022/06/06 01:53:56;;;;;;;32.83;20.70;;;16.70;88.20;;;;;;6245544;23;20184;-88
2022/06/06 01:56:33;;;;;;;35.90;23.25;;;16.80;88.50;;;;;;6245491;23;20152;-89
2022/06/06 01:58:59;;;;;;;40.13;23.23;;;16.70;88.20;;;;;;6245347;23;20255;-88
2022/06/06 02:01:25;;;;;;;34.90;22.70;;;16.80;88.00;;;;;;6245255;23;20233;-88
2022/06/06 02:03:52;;;;;;;36.13;23.50;;;16.70;87.80;;;;;;6247437;22;20447;-88
2022/06/06 02:06:25;;;;;;;36.53;23.58;;;16.70;87.80;;;;;;6245720;23;20507;-89
2022/06/06 02:08:51;;;;;;;28.35;18.88;;;16.70;88.40;;;;;;6250163;22;20180;-89
2022/06/06 02:11:18;;;;;;;29.13;20.05;;;16.70;87.50;;;;;;6245563;23;20210;-89
2022/06/06 02:13:44;;;;;;;32.17;20.38;;;16.70;87.60;;;;;;6247642;22;20290;-89
2022/06/06 02:16:10;;;;;;;29.38;18.55;;;16.60;88.10;;;;;;6245368;22;20164;-90
2022/06/06 02:19:05;;;;;;;29.40;18.47;;;16.60;86.70;;;;;;6245941;22;20176;-90
2022/06/06 02:21:31;;;;;;;28.25;17.63;;;16.50;85.90;;;;;;6245892;23;20390;-92
2022/06/06 02:23:57;;;;;;;29.27;17.30;;;16.50;85.60;;;;;;6246114;23;20156;-89
2022/06/06 02:26:23;;;;;;;27.07;17.40;;;16.40;85.20;;;;;;6247287;23;20159;-89
2022/06/06 02:28:50;;;;;;;23.65;17.60;;;16.40;85.60;;;;;;6244837;22;20180;-89
2022/06/06 02:31:15;;;;;;;25.23;17.13;;;16.40;86.10;;;;;;6245336;22;20577;-89
2022/06/06 02:33:41;;;;;;;25.13;17.17;;;16.40;86.10;;;;;;6245335;22;20211;-88
2022/06/06 02:36:07;;;;;;;33.87;18.80;;;16.40;86.70;;;;;;6245212;23;20286;-88
2022/06/06 02:38:33;;;;;;;28.30;19.73;;;16.50;86.30;;;;;;6245151;22;20509;-88
2022/06/06 02:41:08;;;;;;;29.70;17.67;;;16.50;85.80;;;;;;6245955;23;20391;-88
2022/06/06 02:43:43;;;;;;;29.00;18.80;;;16.50;85.90;;;;;;6245488;23;20518;-88
2022/06/06 02:46:11;;;;;;;34.85;20.63;;;16.40;86.70;;;;;;6245483;23;20152;-88
2022/06/06 02:48:37;;;;;;;29.17;18.95;;;16.40;86.90;;;;;;6245285;22;20183;-88
2022/06/06 02:51:04;;;;;;;24.67;16.77;;;16.30;87.00;;;;;;6245368;22;20191;-88
2022/06/06 02:53:30;;;;;;;30.15;18.02;;;16.40;86.40;;;;;;6245568;23;20517;-88
2022/06/06 02:55:57;;;;;;;28.45;18.58;;;16.40;86.50;;;;;;6247701;22;20244;-88
2022/06/06 02:58:24;;;;;;;25.08;17.60;;;16.20;86.70;;;;;;6256531;23;20661;-88
2022/06/06 03:01:04;;;;;;;25.90;15.80;;;16.20;86.80;;;;;;6263417;22;20152;-88
2022/06/06 03:03:31;;;;;;;27.88;16.73;;;16.20;86.40;;;;;;6262312;22;20133;-88
2022/06/06 03:06:05;;;;;;;30.70;17.02;;;16.00;86.50;;;;;;6258573;22;20160;-88
2022/06/06 03:08:59;;;;;;;22.48;15.50;;;16.00;86.60;;;;;;6253703;23;20203;-87
2022/06/06 03:11:43;;;;;;;25.27;16.48;;;15.90;87.20;;;;;;6247404;23;20203;-88
2022/06/06 03:14:39;;;;;;;20.75;15.32;;;15.90;87.50;;;;;;6245189;23;20183;-88
2022/06/06 03:20:54;;;;;;;25.27;15.15;;;15.80;87.30;;;;;;6246537;23;20144;-88
2022/06/06 03:23:46;;;;;;;25.27;14.93;;;15.80;87.70;;;;;;6245913;23;20149;-87
2022/06/06 03:26:40;;;;;;;17.38;13.63;;;15.70;88.00;;;;;;6245346;23;20149;-88
2022/06/06 03:29:22;;;;;;;20.60;14.65;;;15.70;87.80;;;;;;6246925;23;20176;-88
2022/06/06 03:31:54;;;;;;;19.70;13.90;;;15.60;87.70;;;;;;6246866;22;20641;-88
2022/06/06 03:34:49;;;;;;;20.20;12.73;;;15.60;87.60;;;;;;6244722;22;20180;-88
2022/06/06 03:37:31;;;;;;;17.25;12.23;;;15.60;87.70;;;;;;6246423;22;20132;-88
2022/06/06 03:40:08;;;;;;;21.85;13.85;;;15.60;87.90;;;;;;6246633;23;20160;-88
2022/06/06 03:42:47;;;;;;;15.00;11.10;;;15.60;87.10;;;;;;6249199;22;20136;-88
2022/06/06 03:45:24;;;;;;;13.23;10.07;;;15.50;86.80;;;;;;6245111;23;20251;-88
2022/06/06 03:48:16;;;;;;;18.23;11.98;;;15.50;87.10;;;;;;6246378;23;20180;-88
2022/06/06 03:51:08;;;;;;;20.73;11.02;;;15.50;87.40;;;;;;6244247;23;20625;-89
2022/06/06 03:53:49;;;;;;;12.68;10.68;;;15.50;87.20;;;;;;6245137;23;20187;-89
2022/06/06 03:56:27;;;;;;;16.75;10.23;;;15.50;87.10;;;;;;6246357;23;20207;-88
2022/06/06 03:58:54;;;;;;;18.85;11.35;;;15.50;87.10;;;;;;6246029;23;20226;-88
2022/06/06 04:01:22;;;;;;;15.43;10.85;;;15.50;88.00;;;;;;6249182;22;20171;-88
2022/06/06 04:03:52;;;;;;;18.40;10.90;;;15.50;86.90;;;;;;6262806;22;20179;-89
2022/06/06 04:06:18;;;;;;;14.43;10.10;;;15.50;87.30;;;;;;6257410;23;20645;-89
2022/06/06 04:08:44;;;;;;;16.00;11.05;;;15.50;87.70;;;;;;6244739;22;20196;-88
2022/06/06 04:11:22;;;;;;;14.03;10.20;;;15.40;87.10;;;;;;6243717;22;20190;-88
2022/06/06 04:14:03;;;;;;;17.58;9.43;;;15.40;87.40;;;;;;6244290;22;20191;-88
2022/06/06 04:16:51;;;;;;;14.20;8.50;;;15.40;87.20;;;;;;6244236;23;20152;-88
2022/06/06 04:19:28;;;;;;;12.23;9.02;;;15.50;86.40;;;;;;6243987;23;20183;-88
2022/06/06 04:22:31;;;;;;;11.52;7.97;;;15.50;86.10;;;;;;6245579;23;20144;-88
2022/06/06 04:25:22;;;;;;;12.05;9.15;;;15.40;86.50;;;;;;6243975;23;20255;-89
2022/06/06 04:27:58;;;;;;;10.90;7.60;;;15.40;86.10;;;;;;6245298;23;20177;-89
2022/06/06 04:31:02;;;;;;;13.10;8.10;;;15.40;86.20;;;;;;6244095;23;20410;-89
2022/06/06 04:33:38;;;;;;;9.73;6.85;;;15.50;86.20;;;;;;6245060;22;20178;-90
2022/06/06 04:36:07;;;;;;;11.93;6.80;;;15.50;85.50;;;;;;6243978;23;20610;-89
2022/06/06 04:38:45;;;;;;;10.02;6.28;;;15.50;85.70;;;;;;6243843;22;20171;-88
2022/06/06 04:41:18;;;;;;;12.73;6.07;;;15.50;85.30;;;;;;6244116;23;20218;-88
2022/06/06 04:44:01;;;;;;;8.10;6.22;;;15.60;84.50;;;;;;6244160;23;20161;-88
2022/06/06 04:46:36;;;;;;;8.32;4.93;;;15.60;84.50;;;;;;6244107;23;20157;-88
2022/06/06 04:49:02;;;;;;;7.35;5.10;;;15.50;83.90;;;;;;6243720;23;20176;-88
2022/06/06 04:51:35;;;;;;;7.30;5.47;;;15.50;83.90;;;;;;6245655;22;20519;-87
2022/06/06 04:54:03;;;;;;;5.97;5.03;;;15.60;83.60;;;;;;6245542;23;20175;-88
2022/06/06 04:56:29;;;;;;;7.15;4.22;;;15.60;84.10;;;;;;6243796;23;20159;-88
2022/06/06 04:58:58;;;;;;;6.40;4.03;;;15.60;84.00;;;;;;6243358;23;20180;-87
2022/06/06 05:01:26;;;;;;;7.25;4.85;;;15.70;84.00;;;;;;6245181;22;20386;-88
2022/06/06 05:03:52;;;;;;;9.02;4.85;;;15.70;83.40;;;;;;6243797;22;20160;-88
2022/06/06 05:06:27;;;;;;;5.75;4.70;;;15.60;83.00;;;;;;6245418;22;20231;-88
2022/06/06 05:09:08;;;;;;;5.93;4.57;;;15.80;83.10;;;;;;6244079;22;20241;-87
2022/06/06 05:11:38;;;;;;;6.53;4.60;;;15.80;83.20;;;;;;6244434;23;20642;-87
2022/06/06 05:14:23;;;;;;;7.82;5.03;;;15.80;82.70;;;;;;6244011;23;20185;-89
2022/06/06 05:16:59;;;;;;;6.90;4.72;;;16.10;82.70;;;;;;6244121;23;20176;-87
2022/06/06 05:19:46;;;;;;;4.40;3.92;;;16.80;81.00;;;;;;6245184;22;20222;-88
2022/06/06 05:22:32;;;;;;;5.10;3.90;;;17.70;76.30;;;;;;6245388;23;20143;-88
2022/06/06 05:25:19;;;;;;;4.93;3.65;;;18.80;71.20;;;;;;6171356;22;20184;-88
2022/06/06 05:28:02;;;;;;;5.23;3.53;;;19.70;67.30;;;;;;6245436;23;20645;-88
2022/06/06 05:31:02;;;;;;;6.50;2.87;;;20.80;64.20;;;;;;6246096;23;20411;-88
2022/06/06 05:33:36;;;;;;;4.90;2.80;;;22.00;59.40;;;;;;6170166;23;20407;-88
2022/06/06 05:36:18;;;;;;;4.10;2.73;;;22.60;55.90;;;;;;6246809;23;20372;-88
2022/06/06 05:39:03;;;;;;;3.83;2.67;;;23.60;52.30;;;;;;6247737;23;20806;-88
2022/06/06 05:41:56;;;;;;;2.40;2.17;;;24.00;50.10;;;;;;6245849;23;20375;-88
2022/06/06 05:44:41;;;;;;;3.93;3.33;;;23.60;50.80;;;;;;6245422;23;20412;-88
2022/06/06 05:47:45;;;;;;;3.20;2.90;;;23.60;50.00;;;;;;6247104;23;20380;-88
2022/06/06 05:50:34;;;;;;;3.90;2.70;;;22.80;52.00;;;;;;6246191;23;20377;-88
2022/06/06 05:53:20;;;;;;;3.53;2.20;;;22.70;52.60;;;;;;6247866;22;20407;-88
2022/06/06 05:56:13;;;;;;;3.70;2.50;;;22.70;53.40;;;;;;6245864;23;20824;-88
2022/06/06 05:58:51;;;;;;;4.53;2.63;;;22.40;53.60;;;;;;6245771;23;20436;-88
2022/06/06 06:01:44;;;;;;;5.40;2.50;;;22.80;51.70;;;;;;6246140;23;20379;-89
2022/06/06 06:04:31;;;;;;;3.13;2.50;;;22.40;52.70;;;;;;6245720;23;20430;-89
2022/06/06 06:07:22;;;;;;;2.73;1.70;;;22.00;54.50;;;;;;6247638;23;20376;-89
2022/06/06 06:10:22;;;;;;;3.17;2.17;;;22.00;55.70;;;;;;6246011;23;20388;-89
2022/06/06 06:13:06;;;;;;;2.30;1.60;;;22.30;54.50;;;;;;6246340;23;20380;-89
2022/06/06 06:15:43;;;;;;;4.20;2.40;;;22.50;54.00;;;;;;6247777;22;20475;-89
2022/06/06 06:18:51;;;;;;;3.00;2.13;;;22.40;53.80;;;;;;6247370;22;20383;-89
2022/06/06 06:21:34;;;;;;;5.13;2.33;;;22.70;53.30;;;;;;6246008;23;20880;-88
2022/06/06 06:24:16;;;;;;;3.73;2.23;;;22.40;52.80;;;;;;6245572;23;20860;-88
2022/06/06 06:26:43;;;;;;;4.50;2.03;;;22.00;54.00;;;;;;6248390;23;20372;-88
2022/06/06 06:29:10;;;;;;;2.70;2.33;;;21.80;54.60;;;;;;6252682;23;20395;-89
2022/06/06 06:31:47;;;;;;;4.80;2.13;;;21.90;55.10;;;;;;6254217;22;20455;-89
2022/06/06 06:34:22;;;;;;;6.17;1.63;;;22.80;52.30;;;;;;6255530;23;20424;-89
2022/06/06 06:37:00;;;;;;;3.73;1.83;;;22.80;51.80;;;;;;6248621;23;20380;-89
2022/06/06 06:39:44;;;;;;;3.10;1.60;;;22.60;52.00;;;;;;6247877;23;20465;-90
2022/06/06 06:42:10;;;;;;;3.50;1.70;;;23.00;52.70;;;;;;6248301;23;20470;-90
2022/06/06 06:44:53;;;;;;;2.17;1.70;;;23.10;51.40;;;;;;6249409;23;20388;-90
2022/06/06 06:47:30;;;;;;;2.63;1.93;;;22.40;52.30;;;;;;6249936;23;20181;-90
2022/06/06 06:50:16;;;;;;;2.70;1.67;;;22.00;53.40;;;;;;6261298;23;20414;-89
2022/06/06 06:52:48;;;;;;;4.13;1.70;;;21.90;55.00;;;;;;6271858;22;20348;-88
2022/06/06 06:55:32;;;;;;;4.60;1.90;;;21.90;54.40;;;;;;6270759;22;20604;-87
2022/06/06 06:58:34;;;;;;;2.53;1.60;;;22.40;53.30;;;;;;6269570;23;20407;-88
2022/06/06 07:01:27;;;;;;;2.17;1.80;;;22.10;53.70;;;;;;6271129;23;20356;-88
2022/06/06 07:10:27;;;;;;;5.53;1.80;;;22.40;52.00;;;;;;6272606;23;20363;-89
2022/06/06 07:13:03;;;;;;;2.63;1.70;;;21.90;53.20;;;;;;6264601;22;20389;-89
2022/06/06 07:15:46;;;;;;;2.23;2.00;;;21.40;54.50;;;;;;6269111;23;20407;-89
2022/06/06 07:18:16;;;;;;;2.03;1.67;;;21.20;56.70;;;;;;6252995;23;20399;-89
2022/06/06 07:20:46;;;;;;;5.13;1.77;;;21.50;56.60;;;;;;6246978;23;20410;-89
2022/06/06 07:23:14;;;;;;;1.90;1.70;;;21.40;55.80;;;;;;6248365;22;20451;-89
2022/06/06 07:25:44;;;;;;;2.37;1.80;;;21.50;53.70;;;;;;6247173;23;20734;-89
2022/06/06 07:28:18;;;;;;;4.07;3.57;;;20.70;55.20;;;;;;6246060;23;20404;-90
2022/06/06 07:31:11;;;;;;;4.67;2.40;;;20.30;57.90;;;;;;6246839;23;20375;-90
2022/06/06 07:34:05;;;;;;;4.13;3.73;;;20.20;59.10;;;;;;6246056;23;20424;-90
2022/06/06 07:37:00;;;;;;;11.20;7.00;;;20.10;60.40;;;;;;6245627;23;20421;-90
2022/06/06 07:39:50;;;;;;;8.13;7.35;;;20.30;59.00;;;;;;6245503;23;20407;-89
2022/06/06 07:42:31;;;;;;;13.10;11.70;;;20.00;60.70;;;;;;6246026;22;20152;-89
2022/06/06 07:45:17;;;;;;;12.80;8.70;;;19.60;62.30;;;;;;6247987;22;20204;-89
2022/06/06 07:47:51;;;;;;;10.20;8.93;;;19.70;63.30;;;;;;6248382;22;20188;-89
2022/06/06 07:50:45;;;;;;;9.80;8.73;;;19.40;63.50;;;;;;6256648;22;20156;-88
2022/06/06 07:53:30;;;;;;;8.05;7.03;;;19.30;63.10;;;;;;6262152;23;20148;-88
2022/06/06 07:56:29;;;;;;;5.85;4.30;;;19.40;62.10;;;;;;6261610;23;20159;-88
2022/06/06 07:59:26;;;;;;;5.55;4.38;;;20.00;59.90;;;;;;6201696;22;20572;-88
2022/06/06 08:02:03;;;;;;;5.10;3.10;;;19.90;59.20;;;;;;6261386;23;20187;-89
2022/06/06 08:05:03;;;;;;;2.47;2.05;;;19.70;60.30;;;;;;6245750;23;20482;-88
2022/06/06 08:07:44;;;;;;;4.50;2.92;;;20.10;57.70;;;;;;6246598;22;20164;-89
2022/06/06 08:10:40;;;;;;;3.70;2.92;;;20.10;57.90;;;;;;6245274;23;20628;-87
2022/06/06 08:13:24;;;;;;;3.13;2.80;;;19.80;59.20;;;;;;6244913;22;20168;-87
2022/06/06 08:16:19;;;;;;;4.15;2.25;;;20.10;59.80;;;;;;6244844;23;20156;-87
2022/06/06 08:19:02;;;;;;;7.27;2.40;;;20.10;58.00;;;;;;6246876;22;20825;-87
2022/06/06 08:21:43;;;;;;;4.90;2.90;;;19.90;59.30;;;;;;6245868;23;20372;-87
2022/06/06 08:24:15;;;;;;;6.40;2.50;;;20.00;59.90;;;;;;6247402;22;20167;-87
2022/06/06 08:26:43;;;;;;;3.37;2.57;;;20.30;58.90;;;;;;6246161;22;20153;-88
2022/06/06 08:29:09;;;;;;;3.85;2.50;;;20.30;58.40;;;;;;6246837;22;20459;-88
2022/06/06 08:31:36;;;;;;;5.63;2.47;;;20.40;58.00;;;;;;6252121;22;20152;-87
2022/06/06 08:34:02;;;;;;;3.43;1.90;;;20.80;56.00;;;;;;6248875;22;20944;-88
2022/06/06 08:36:34;;;;;;;4.73;2.13;;;20.50;57.50;;;;;;6247109;22;20454;-87
2022/06/06 08:39:16;;;;;;;4.93;1.90;;;20.30;58.10;;;;;;6247888;23;20430;-87
2022/06/06 08:42:20;;;;;;;3.97;1.80;;;20.00;58.70;;;;;;6247124;23;20371;-88
2022/06/06 08:45:14;;;;;;;5.00;2.23;;;20.20;57.60;;;;;;6251454;23;20390;-89
2022/06/06 08:47:45;;;;;;;2.37;2.07;;;20.70;58.30;;;;;;6269459;22;20399;-91
2022/06/06 08:50:44;;;;;;;1.93;1.73;;;20.70;58.90;;;;;;6271708;22;20380;-91
2022/06/06 08:53:48;;;;;;;6.93;2.00;;;20.60;58.30;;;;;;6270692;22;20375;-91
2022/06/06 08:56:26;;;;;;;3.20;2.07;;;20.50;59.00;;;;;;6272030;23;20407;-90
2022/06/06 08:59:32;;;;;;;4.90;1.63;;;20.50;58.30;;;;;;6270461;23;20438;-89
2022/06/06 09:02:36;;;;;;;3.63;1.43;;;20.60;58.30;;;;;;6272166;22;20378;-89
2022/06/06 09:09:10;;;;;;;3.90;1.67;;;20.70;56.80;;;;;;6272213;22;20413;-90
2022/06/06 09:15:30;;;;;;;1.97;1.70;;;20.70;57.40;;;;;;6247693;23;20426;-89
2022/06/06 09:18:16;;;;;;;4.93;2.60;;;20.20;59.40;;;;;;6246765;22;20768;-89
2022/06/06 09:21:29;;;;;;;5.30;1.60;;;19.90;60.50;;;;;;6245268;23;20375;-90
2022/06/06 09:24:25;;;;;;;4.20;1.73;;;20.00;60.70;;;;;;6244545;23;20391;-90
2022/06/06 09:27:15;;;;;;;3.43;2.10;;;20.10;60.90;;;;;;6244430;23;20391;-88
2022/06/06 09:30:10;;;;;;;5.97;1.97;;;19.90;60.10;;;;;;6244996;22;20454;-88
2022/06/06 09:32:42;;;;;;;2.10;1.47;;;20.00;60.20;;;;;;6245081;22;20386;-87
2022/06/06 09:35:39;;;;;;;4.10;1.67;;;20.30;60.70;;;;;;6243082;22;20427;-87
2022/06/06 09:38:09;;;;;;;5.03;1.77;;;20.40;58.00;;;;;;6243583;23;20481;-87
2022/06/06 09:40:51;;;;;;;3.03;1.60;;;20.50;58.20;;;;;;6243852;23;20476;-88
2022/06/06 09:43:35;;;;;;;4.70;1.90;;;20.40;58.80;;;;;;6245527;22;20813;-88
2022/06/06 09:46:24;;;;;;;6.70;2.37;;;20.30;58.50;;;;;;6217567;23;20415;-87
2022/06/06 09:49:15;;;;;;;4.23;1.80;;;20.10;58.70;;;;;;6243754;23;20407;-88
2022/06/06 09:51:59;;;;;;;3.50;1.30;;;19.80;58.80;;;;;;6243756;23;20470;-87
2022/06/06 10:01:28;;;;;;;2.70;1.30;;;19.90;58.70;;;;;;6245153;23;20342;-88
2022/06/06 10:04:42;;;;;;;4.80;1.77;;;20.10;59.40;;;;;;6243903;23;20817;-87
2022/06/06 10:07:48;;;;;;;2.60;1.53;;;20.30;59.70;;;;;;6243456;23;20426;-88
2022/06/06 10:10:51;;;;;;;3.03;1.43;;;20.50;56.90;;;;;;6244365;23;20489;-87
2022/06/06 10:13:27;;;;;;;9.23;1.80;;;20.70;55.70;;;;;;6245297;23;21036;-88
2022/06/06 10:16:13;;;;;;;4.17;1.40;;;21.00;55.90;;;;;;6246892;23;20382;-87
2022/06/06 10:18:57;;;;;;;5.90;1.50;;;20.90;56.10;;;;;;6246526;22;20376;-87
2022/06/06 10:21:50;;;;;;;2.70;1.30;;;21.20;55.90;;;;;;6245204;22;20457;-88
2022/06/06 10:24:28;;;;;;;4.70;1.60;;;21.20;54.70;;;;;;6245491;23;20384;-88
2022/06/06 10:27:31;;;;;;;2.70;1.43;;;21.20;55.60;;;;;;6245162;23;20414;-87
2022/06/06 10:30:37;;;;;;;3.53;1.43;;;21.00;56.10;;;;;;6245090;23;20375;-87
2022/06/06 10:33:18;;;;;;;7.47;1.63;;;20.80;55.70;;;;;;6245032;23;20371;-86
2022/06/06 10:39:39;;;;;;;2.67;1.40;;;21.00;55.50;;;;;;6239100;22;20384;-87
2022/06/06 10:42:29;;;;;;;2.83;1.60;;;20.90;55.50;;;;;;6246884;22;20818;-87
2022/06/06 10:45:13;;;;;;;3.83;1.73;;;20.70;56.10;;;;;;6244446;23;20388;-86
2022/06/06 10:48:17;;;;;;;4.20;1.50;;;20.90;54.90;;;;;;6244326;23;20403;-86
2022/06/06 10:53:54;;;;;;;2.63;1.23;;;20.70;55.50;;;;;;6247420;23;20426;-87
2022/06/06 10:56:35;;;;;;;2.97;1.80;;;20.80;55.50;;;;;;6250670;22;20372;-86
2022/06/06 10:59:39;;;;;;;3.93;2.27;;;20.80;57.10;;;;;;6247875;23;21027;-86
2022/06/06 11:02:32;;;;;;;3.80;1.90;;;20.90;56.50;;;;;;6254372;22;20727;-87
2022/06/06 11:05:27;;;;;;;2.80;1.40;;;21.40;54.20;;;;;;6246465;23;20360;-87
2022/06/06 11:08:22;;;;;;;3.87;1.50;;;21.60;54.60;;;;;;6243846;23;20811;-87
2022/06/06 11:11:06;;;;;;;2.30;1.53;;;21.70;53.90;;;;;;6250001;23;20865;-86
2022/06/06 11:13:54;;;;;;;2.10;1.20;;;21.60;54.20;;;;;;6246401;23;20446;-87
2022/06/06 11:17:04;;;;;;;1.87;1.20;;;21.90;54.40;;;;;;6247406;22;20367;-87
2022/06/06 11:19:36;;;;;;;2.80;1.60;;;22.20;53.50;;;;;;6101457;23;20410;-86
2022/06/06 11:22:27;;;;;;;2.43;1.60;;;22.20;54.00;;;;;;6146300;22;20453;-87
2022/06/06 11:25:03;;;;;;;2.43;1.70;;;22.50;52.60;;;;;;6250402;23;20419;-86
2022/06/06 11:28:08;;;;;;;4.70;1.70;;;22.70;51.60;;;;;;6244745;23;20422;-86
2022/06/06 11:30:55;;;;;;;4.90;1.30;;;22.40;51.70;;;;;;6169213;23;20724;-86
2022/06/06 11:33:45;;;;;;;2.07;1.87;;;22.30;50.50;;;;;;6248051;22;20897;-86
2022/06/06 11:36:49;;;;;;;2.50;1.30;;;22.00;52.00;;;;;;6248912;22;20360;-86
2022/06/06 11:39:37;;;;;;;2.57;1.60;;;21.90;52.90;;;;;;6248311;23;20766;-86
2022/06/06 11:42:28;;;;;;;2.50;1.70;;;22.40;51.40;;;;;;6248194;22;20401;-86
2022/06/06 11:45:09;;;;;;;6.70;2.00;;;22.30;52.50;;;;;;6247712;23;20364;-86
2022/06/06 11:47:54;;;;;;;5.50;1.70;;;21.80;52.50;;;;;;6244184;22;20441;-87
2022/06/06 11:51:01;;;;;;;2.63;1.63;;;21.70;53.40;;;;;;6245962;22;20375;-87
2022/06/06 11:53:59;;;;;;;2.73;1.43;;;21.50;53.90;;;;;;6247853;23;20810;-86
2022/06/06 11:56:59;;;;;;;5.10;1.83;;;21.50;54.80;;;;;;6246278;23;20425;-86
2022/06/06 12:00:04;;;;;;;8.33;3.20;;;21.00;54.90;;;;;;6244863;23;20434;-87
2022/06/06 12:02:52;;;;;;;6.53;2.00;;;20.80;56.60;;;;;;6243248;22;20394;-86
2022/06/06 12:05:45;;;;;;;2.70;1.80;;;20.70;57.60;;;;;;6246496;23;20354;-87
2022/06/06 12:08:22;;;;;;;3.10;1.43;;;20.60;56.10;;;;;;6244340;23;20404;-87
2022/06/06 12:11:00;;;;;;;2.67;1.57;;;20.50;55.80;;;;;;6245227;23;20402;-87
2022/06/06 12:13:41;;;;;;;4.30;1.60;;;20.70;56.20;;;;;;6246229;22;20878;-88
2022/06/06 12:16:32;;;;;;;8.33;1.83;;;20.60;55.80;;;;;;6244864;22;20356;-88
2022/06/06 12:19:05;;;;;;;6.60;1.70;;;20.80;55.00;;;;;;6245435;22;20407;-90
2022/06/06 12:21:54;;;;;;;4.47;1.70;;;20.60;55.10;;;;;;6244125;23;20386;-89
2022/06/06 12:24:42;;;;;;;6.23;1.70;;;20.30;55.60;;;;;;6245668;22;20356;-88
2022/06/06 12:27:24;;;;;;;2.70;1.53;;;20.00;55.10;;;;;;6243477;23;20395;-88
2022/06/06 12:30:05;;;;;;;2.03;1.60;;;20.00;55.90;;;;;;6245414;23;20359;-88
2022/06/06 12:32:47;;;;;;;3.60;1.70;;;20.20;55.10;;;;;;6242128;23;20415;-88
2022/06/06 12:35:36;;;;;;;4.13;1.40;;;20.30;56.40;;;;;;6245268;22;20435;-88
2022/06/06 12:38:17;;;;;;;3.93;1.60;;;20.50;55.90;;;;;;6243415;23;20407;-88
2022/06/06 12:41:05;;;;;;;3.17;1.60;;;20.30;56.10;;;;;;6245413;23;20367;-88
2022/06/06 12:43:58;;;;;;;9.60;1.57;;;20.20;55.80;;;;;;6248875;23;20355;-87
2022/06/06 12:46:53;;;;;;;3.63;1.50;;;20.10;56.30;;;;;;6243402;23;20441;-88
2022/06/06 12:49:34;;;;;;;3.20;1.43;;;20.30;55.70;;;;;;6245146;23;20889;-88
2022/06/06 12:52:16;;;;;;;4.73;1.40;;;20.10;56.50;;;;;;6243924;23;20376;-88
2022/06/06 12:55:33;;;;;;;2.77;1.60;;;20.30;55.90;;;;;;6245307;23;20514;-88
2022/06/06 12:58:18;;;;;;;2.57;1.60;;;20.40;56.00;;;;;;6098349;23;20489;-88
2022/06/06 13:04:32;;;;;;;2.03;1.33;;;20.50;57.30;;;;;;6244633;23;20401;-89
2022/06/06 13:07:29;;;;;;;3.50;2.00;;;20.50;58.20;;;;;;6185905;23;20469;-90
2022/06/06 13:10:23;;;;;;;2.23;1.33;;;20.60;57.10;;;;;;6221189;23;20415;-89
2022/06/06 13:13:10;;;;;;;5.13;1.90;;;20.50;57.20;;;;;;6244949;23;20387;-89
2022/06/06 13:15:51;;;;;;;1.83;1.50;;;20.50;57.40;;;;;;6243587;23;20419;-89
2022/06/06 13:21:44;;;;;;;2.53;1.40;;;20.30;56.90;;;;;;6245325;23;20343;-89
2022/06/06 13:24:35;;;;;;;3.40;1.40;;;20.30;56.70;;;;;;6244176;23;20377;-89
2022/06/06 13:27:22;;;;;;;5.20;1.57;;;20.20;56.40;;;;;;6198736;22;20384;-89
2022/06/06 13:30:20;;;;;;;5.07;1.60;;;20.10;57.70;;;;;;6245274;22;20364;-89
2022/06/06 13:33:29;;;;;;;2.73;1.60;;;20.30;56.80;;;;;;6218097;23;20491;-90
2022/06/06 13:36:10;;;;;;;4.03;1.53;;;20.60;56.20;;;;;;6179849;23;20457;-88
2022/06/06 13:38:58;;;;;;;3.63;1.50;;;20.60;56.40;;;;;;6243774;23;20407;-89
2022/06/06 13:41:42;;;;;;;2.87;1.40;;;20.80;56.20;;;;;;6243548;23;20379;-89
2022/06/06 13:44:11;;;;;;;2.83;1.60;;;20.70;56.20;;;;;;6246003;23;20450;-89
2022/06/06 13:46:59;;;;;;;3.50;1.70;;;20.80;55.80;;;;;;6247124;22;20678;-90
2022/06/06 13:50:02;;;;;;;3.93;1.60;;;21.20;53.90;;;;;;6246089;22;20406;-88
2022/06/06 13:52:49;;;;;;;2.07;1.10;;;21.10;53.10;;;;;;6245529;23;20703;-88
2022/06/06 13:55:35;;;;;;;2.87;1.67;;;20.90;53.80;;;;;;6245999;23;20813;-89
2022/06/06 13:58:49;;;;;;;2.23;1.50;;;20.80;53.30;;;;;;6245993;23;20398;-89
2022/06/06 14:01:45;;;;;;;5.37;1.80;;;20.30;54.50;;;;;;6222693;22;20384;-87
2022/06/06 14:04:19;;;;;;;3.43;1.70;;;20.00;55.40;;;;;;6246083;23;20380;-88
2022/06/06 14:07:18;;;;;;;4.23;1.90;;;19.90;56.70;;;;;;6247032;23;20836;-88
2022/06/06 14:09:46;;;;;;;3.10;1.70;;;19.80;57.50;;;;;;6246950;22;20858;-88
2022/06/06 14:12:31;;;;;;;8.75;2.45;;;19.70;58.40;;;;;;6247898;22;20869;-89
2022/06/06 14:15:09;;;;;;;3.72;2.03;;;19.60;59.40;;;;;;6246488;23;20234;-88
2022/06/06 14:17:39;;;;;;;2.67;2.08;;;19.50;60.20;;;;;;6247253;22;20243;-88
2022/06/06 14:20:07;;;;;;;3.60;1.70;;;19.30;60.70;;;;;;6219432;23;20957;-88
2022/06/06 14:22:38;;;;;;;4.63;1.75;;;19.30;61.60;;;;;;6220211;23;20168;-88
2022/06/06 14:25:06;;;;;;;4.05;1.70;;;19.30;61.60;;;;;;6247527;22;20157;-87
2022/06/06 14:27:41;;;;;;;4.32;1.80;;;19.40;61.80;;;;;;6219777;23;20187;-88
2022/06/06 14:30:31;;;;;;;3.10;1.60;;;19.30;62.10;;;;;;6246659;22;20136;-87
2022/06/06 14:33:00;;;;;;;10.45;2.13;;;19.20;61.80;;;;;;6230606;22;20611;-87
2022/06/06 14:35:38;;;;;;;4.25;1.85;;;19.40;61.70;;;;;;6245880;23;20263;-88
2022/06/06 14:38:33;;;;;;;7.35;2.28;;;19.30;60.90;;;;;;6244457;23;20172;-88